aviador You're here:

KABY Decoded Metar

ALBANY in GA, USA
Report Time2018-01-17 08:53:00
UTC Time2018-01-17 09:17:33
Flight Rules vfr VFR
Wind320° at 11 kt
W.Decomp.*RWY 34: 10.5 kt HW 3.4 kt LCW
RWY 04: 2.3 kt HW 10.8 kt LCW
W.Rank320° ranks 12
Current wind is above 320° avg. (6.6)
Visibility9999 m
Phenomena:N/A
Clouds:Overcast 065 Hf
Expected CloudBase > 2,000 ft AGL from Temp-Dew spread
Ceiling6,500 ft
Temp04°C (ISA -11)
Dew Point-1°C (70% RH)
AAT-2.1°C
QNH1028 hPa
Density Alt-1,526 ft
Elevation190 ft
Report Wrong Elevation
Raw Report
METAR KABY 170853Z AUTO 32011KT 10SM OVC065 04/M01 A3035 RMK AO2 SLP279
T00391006 53003=

Extra information for KABY:More info

Metar Taf Metar & Taf Last 4 Metars F.Rules Stats Wind Profile Meteogram Temp Stats Airport Information Weather charts Add Link Nearby VenuesMetar ALERT Operation Metar Decoded Social comments

AIRNAV info for KABY